createdAt,value
2019-04-10T00:02:29.336Z,39.90
2019-04-10T00:07:34.602Z,37.50
2019-04-10T00:12:40.441Z,35.80
2019-04-10T00:17:45.518Z,39.17
2019-04-10T00:22:51.322Z,33.07
2019-04-10T00:27:57.446Z,32.30
2019-04-10T00:33:02.805Z,33.37
2019-04-10T00:38:07.776Z,36.50
2019-04-10T00:43:13.136Z,39.50
2019-04-10T00:48:19.550Z,39.67
2019-04-10T00:53:25.304Z,33.60
2019-04-10T00:58:30.386Z,30.67
2019-04-10T01:03:46.672Z,36.37
2019-04-10T01:08:51.246Z,41.73
2019-04-10T01:13:57.047Z,37.27
2019-04-10T01:19:02.442Z,33.93
2019-04-10T01:24:07.801Z,37.03
2019-04-10T01:29:13.556Z,36.63
2019-04-10T01:34:19.047Z,36.87
2019-04-10T01:39:27.208Z,42.17
2019-04-10T01:44:33.226Z,39.53
2019-04-10T01:49:38.208Z,36.47
2019-04-10T01:54:45.588Z,37.77
2019-04-10T01:59:50.312Z,35.50
2019-04-10T02:04:56.680Z,38.43
2019-04-10T02:10:01.840Z,37.77
2019-04-10T02:15:11.845Z,41.60
2019-04-10T02:20:15.270Z,37.37
2019-04-10T02:25:20.356Z,39.63
2019-04-10T02:30:26.141Z,38.57
2019-04-10T02:35:33.871Z,40.27
2019-04-10T02:40:39.255Z,43.73
2019-04-10T02:45:44.560Z,49.00
2019-04-10T02:50:49.576Z,43.13
2019-04-10T02:55:55.803Z,39.90
2019-04-10T03:01:01.798Z,44.20
2019-04-10T03:06:09.230Z,41.43
2019-04-10T03:11:14.722Z,43.47
2019-04-10T03:16:21.667Z,43.90
2019-04-10T03:21:27.258Z,42.23
2019-04-10T03:26:32.220Z,37.97
2019-04-10T03:31:38.954Z,40.67
2019-04-10T03:36:45.420Z,40.67
2019-04-10T03:41:50.602Z,45.20
2019-04-10T03:46:55.545Z,41.23
2019-04-10T03:52:01.019Z,45.23
2019-04-10T03:57:24.674Z,42.40
2019-04-10T04:02:29.640Z,41.43
2019-04-10T04:07:34.840Z,46.03
2019-04-10T04:12:40.110Z,39.67
2019-04-10T04:17:46.436Z,42.27
2019-04-10T04:22:52.916Z,39.90
2019-04-10T04:27:58.326Z,44.03
2019-04-10T04:33:04.746Z,44.20
2019-04-10T04:38:11.496Z,48.77
2019-04-10T04:43:16.719Z,40.20
2019-04-10T04:48:26.326Z,46.40
2019-04-10T04:53:34.371Z,50.37
2019-04-10T04:58:40.952Z,52.10
2019-04-10T05:03:46.459Z,42.73
2019-04-10T05:08:54.803Z,40.07
2019-04-10T05:13:59.850Z,39.77
2019-04-10T05:19:04.956Z,40.97
2019-04-10T05:24:10.100Z,46.40
2019-04-10T05:29:15.370Z,42.10
2019-04-10T05:34:20.408Z,48.07
2019-04-10T05:39:30.396Z,50.60
2019-04-10T05:44:34.308Z,41.30
2019-04-10T05:49:39.353Z,41.50
2019-04-10T05:54:44.329Z,48.23
2019-04-10T05:59:49.738Z,42.57
2019-04-10T06:04:55.946Z,45.10
2019-04-10T06:10:05.162Z,35.13
2019-04-10T06:15:14.712Z,34.40
2019-04-10T06:20:20.934Z,41.53
2019-04-10T06:25:26.320Z,35.73
2019-04-10T06:30:32.236Z,35.70
2019-04-10T06:35:37.761Z,41.27
2019-04-10T06:40:43.997Z,41.47
2019-04-10T06:45:50.315Z,35.43
2019-04-10T06:50:55.691Z,39.27
2019-04-10T06:56:00.750Z,37.10
2019-04-10T07:01:06.920Z,34.73
2019-04-10T07:06:17.541Z,32.83
2019-04-10T07:11:21.683Z,32.30
2019-04-10T07:16:28.608Z,32.00
2019-04-10T07:21:35.366Z,30.47
2019-04-10T07:26:53.292Z,30.03
2019-04-10T07:31:58.446Z,31.43
2019-04-10T07:37:17.515Z,30.07
2019-04-10T07:42:28.420Z,31.03
2019-04-10T07:47:27.520Z,32.70
2019-04-10T07:52:33.088Z,32.13
2019-04-10T07:57:38.593Z,27.70
2019-04-10T08:02:44.952Z,27.33
2019-04-10T08:07:49.916Z,28.97
2019-04-10T08:12:56.015Z,30.63
2019-04-10T08:18:02.423Z,30.20
2019-04-10T08:23:10.446Z,29.90
2019-04-10T08:28:15.631Z,30.23
2019-04-10T08:33:21.733Z,28.93
2019-04-10T08:38:28.050Z,30.23
2019-04-10T08:43:34.195Z,26.57
2019-04-10T08:48:43.320Z,23.17
2019-04-10T08:53:50.818Z,25.63
2019-04-10T08:58:57.255Z,28.77
2019-04-10T09:04:03.634Z,23.27
2019-04-10T09:09:09.770Z,27.67
2019-04-10T09:14:15.008Z,20.67
2019-04-10T09:19:20.457Z,18.60
2019-04-10T09:24:25.920Z,19.77
2019-04-10T09:29:31.914Z,19.63
2019-04-10T09:34:37.986Z,21.77
2019-04-10T09:39:43.402Z,20.57
2019-04-10T09:44:48.996Z,23.10
2019-04-10T09:49:55.591Z,20.17
2019-04-10T09:55:15.934Z,23.57
2019-04-10T10:00:23.324Z,23.53
2019-04-10T10:05:30.730Z,25.60
2019-04-10T10:10:38.238Z,24.70
2019-04-10T10:15:45.210Z,24.10
2019-04-10T10:20:50.774Z,25.53
2019-04-10T10:26:11.856Z,27.93
2019-04-10T10:31:17.186Z,23.97
2019-04-10T10:36:34.713Z,29.30
2019-04-10T10:41:30.059Z,24.03
2019-04-10T10:46:35.573Z,21.80
2019-04-10T10:51:42.550Z,23.60
2019-04-10T10:56:48.793Z,26.80
2019-04-10T11:01:54.426Z,27.50
2019-04-10T11:07:01.105Z,23.57
2019-04-10T11:12:06.934Z,22.67
2019-04-10T11:17:13.419Z,21.43
2019-04-10T11:22:22.978Z,20.47
2019-04-10T11:27:28.107Z,19.23
2019-04-10T11:32:36.615Z,19.73
2019-04-10T11:37:49.613Z,18.50
2019-04-10T11:42:55.438Z,17.67
2019-04-10T11:48:02.290Z,20.40
2019-04-10T11:53:10.302Z,19.32
2019-04-10T11:58:21.728Z,18.82
2019-04-10T12:03:27.210Z,18.57
2019-04-10T12:08:55.282Z,18.62
2019-04-10T12:13:40.828Z,20.27
2019-04-10T12:18:47.609Z,17.35
2019-04-10T12:23:56.930Z,17.27
2019-04-10T12:29:02.624Z,19.57
2019-04-10T12:34:08.815Z,19.85
2019-04-10T12:39:14.737Z,20.37
2019-04-10T12:44:29.646Z,19.87
2019-04-10T12:49:34.208Z,21.30
2019-04-10T12:54:40.524Z,17.80
2019-04-10T12:59:47.816Z,17.50
2019-04-10T13:04:58.136Z,15.50
2019-04-10T13:10:06.979Z,16.23
2019-04-10T13:15:21.350Z,16.75
2019-04-10T13:20:26.524Z,17.85
2019-04-10T13:25:32.416Z,16.60
2019-04-10T13:30:47.070Z,18.50
2019-04-10T13:35:55.343Z,18.70
2019-04-10T13:41:01.912Z,19.50
2019-04-10T13:46:07.350Z,17.93
2019-04-10T13:51:13.119Z,18.50
2019-04-10T13:56:19.109Z,15.90
2019-04-10T14:01:29.850Z,15.40
2019-04-10T14:06:35.957Z,16.75
2019-04-10T14:11:41.589Z,18.52
2019-04-10T14:16:47.119Z,16.10
2019-04-10T14:21:53.581Z,17.40
2019-04-10T14:27:24.478Z,16.77
2019-04-10T14:32:38.062Z,16.23
2019-04-10T14:37:43.414Z,16.45
2019-04-10T14:42:49.637Z,15.93
2019-04-10T14:47:55.900Z,16.90
2019-04-10T14:53:01.880Z,16.80
2019-04-10T14:58:19.636Z,16.48
2019-04-10T15:03:16.107Z,17.75
2019-04-10T15:08:21.792Z,17.70
2019-04-10T15:13:27.772Z,21.10
2019-04-10T15:18:33.533Z,22.63
2019-04-10T15:23:40.227Z,17.93
2019-04-10T15:28:45.669Z,16.63
2019-04-10T15:33:53.805Z,15.60
2019-04-10T15:39:00.248Z,15.40
2019-04-10T15:44:05.813Z,15.57
2019-04-10T15:49:11.134Z,19.03
2019-04-10T15:54:18.038Z,18.40
2019-04-10T15:59:23.892Z,17.43
2019-04-10T16:04:29.618Z,18.93
2019-04-10T16:09:46.449Z,16.57
2019-04-10T16:14:42.307Z,16.23
2019-04-10T16:20:05.010Z,17.77
2019-04-10T16:25:30.029Z,16.43
2019-04-10T16:30:35.503Z,17.30
2019-04-10T16:35:44.080Z,15.77
2019-04-10T16:40:54.193Z,16.97
2019-04-10T16:46:02.730Z,16.13
2019-04-10T16:51:08.032Z,16.73
2019-04-10T16:56:13.599Z,21.73
2019-04-10T17:01:18.984Z,19.13
2019-04-10T17:06:26.088Z,17.87
2019-04-10T17:11:33.586Z,18.47
2019-04-10T17:16:44.072Z,17.23
2019-04-10T17:21:50.125Z,15.27
2019-04-10T17:26:55.332Z,17.50
2019-04-10T17:32:00.467Z,17.30
2019-04-10T17:37:06.088Z,18.33
2019-04-10T17:42:12.321Z,19.10
2019-04-10T17:47:17.611Z,21.43
2019-04-10T17:52:22.954Z,18.27
2019-04-10T17:57:37.429Z,18.47
2019-04-10T18:02:35.423Z,18.90
2019-04-10T18:08:32.703Z,17.33
2019-04-10T18:13:34.944Z,17.27
2019-04-10T18:18:40.528Z,16.70
2019-04-10T18:23:49.633Z,16.93
2019-04-10T18:29:10.056Z,18.63
2019-04-10T18:34:15.756Z,19.37
2019-04-10T18:39:40.967Z,19.43
2019-04-10T18:44:55.432Z,18.70
2019-04-10T18:50:01.224Z,21.17
2019-04-10T18:55:09.408Z,22.03
2019-04-10T19:00:36.822Z,18.87
2019-04-10T19:05:50.571Z,18.90
2019-04-10T19:11:20.015Z,18.03
2019-04-10T19:16:19.556Z,18.43
2019-04-10T19:21:29.365Z,18.73
2019-04-10T19:26:48.400Z,18.27
2019-04-10T19:32:03.406Z,19.20
2019-04-10T19:37:22.865Z,21.03
2019-04-10T19:42:31.951Z,21.23
2019-04-10T19:48:08.931Z,19.10
2019-04-10T19:53:15.534Z,20.17
2019-04-10T19:58:23.232Z,20.03
2019-04-10T20:03:28.405Z,18.80
2019-04-10T20:08:33.958Z,17.73
2019-04-10T20:13:41.224Z,20.83
2019-04-10T20:18:47.169Z,21.47
2019-04-10T20:23:54.411Z,21.37
2019-04-10T20:29:02.464Z,23.77
2019-04-10T20:34:13.681Z,20.70
2019-04-10T20:39:21.008Z,22.33
2019-04-10T20:44:27.019Z,24.30
2019-04-10T20:49:32.484Z,24.03
2019-04-10T20:54:46.887Z,22.80
2019-04-10T20:59:53.152Z,24.77
2019-04-10T21:05:03.123Z,25.63
2019-04-10T21:10:07.044Z,21.40
2019-04-10T21:15:13.168Z,23.07
2019-04-10T21:20:18.307Z,20.73
2019-04-10T21:25:25.895Z,23.20
2019-04-10T21:30:44.533Z,26.27
2019-04-10T21:35:49.855Z,21.30
2019-04-10T21:40:55.330Z,20.53
2019-04-10T21:46:01.206Z,21.70
2019-04-10T21:51:07.296Z,26.97
2019-04-10T21:56:18.063Z,25.20
2019-04-10T22:01:26.984Z,28.27
2019-04-10T22:07:09.974Z,32.23
2019-04-10T22:12:30.633Z,35.13
2019-04-10T22:17:34.206Z,31.07
2019-04-10T22:22:39.702Z,27.77
2019-04-10T22:27:54.850Z,26.90
2019-04-10T22:33:00.234Z,27.83
2019-04-10T22:38:05.592Z,31.27
2019-04-10T22:43:11.686Z,25.63
2019-04-10T22:48:16.896Z,28.50
2019-04-10T22:53:23.454Z,33.30
2019-04-10T22:58:29.548Z,30.53
2019-04-10T23:03:34.572Z,20.10
2019-04-10T23:08:39.957Z,34.33
2019-04-10T23:13:45.874Z,29.80
2019-04-10T23:18:51.838Z,31.60
2019-04-10T23:23:59.106Z,32.40
2019-04-10T23:29:06.382Z,23.70
2019-04-10T23:34:12.560Z,27.03
2019-04-10T23:39:17.968Z,27.33
2019-04-10T23:44:24.842Z,28.33
2019-04-10T23:49:29.923Z,23.93
2019-04-10T23:54:35.506Z,28.30
2019-04-10T23:59:40.685Z,24.13
